Time;durP1;ratioP1;P1;durP2;ratioP2;P2;SDS_P1;SDS_P2;PMS_P1;PMS_P2;Temp;Humidity;BMP_temperature;BMP_pressure;BME280_temperature;BME280_humidity;BME280_pressure;Samples;Min_cycle;Max_cycle;Signal;HPM_P1;HPM_P2
2021/03/29 00:01:59;;;;;;;15.85;4.70;;;;;;;11.84;86.26;101807.84;4952634;28;20030;-78
2021/03/29 00:04:26;;;;;;;14.52;4.05;;;;;;;11.81;87.00;101808.47;4951958;28;20788;-78
2021/03/29 00:06:52;;;;;;;14.45;4.20;;;;;;;12.04;85.78;101806.94;4955515;29;20042;-77
2021/03/29 00:09:19;;;;;;;9.50;3.90;;;;;;;11.90;86.20;101806.50;4952037;29;20033;-76
2021/03/29 00:11:45;;;;;;;13.10;4.22;;;;;;;11.92;86.51;101809.66;4960036;28;20035;-76
2021/03/29 00:14:13;;;;;;;10.93;3.42;;;;;;;11.97;86.14;101803.22;4949039;29;20452;-77
2021/03/29 00:16:40;;;;;;;10.57;4.10;;;;;;;11.87;86.63;101804.44;4954523;29;20451;-77
2021/03/29 00:19:10;;;;;;;12.90;4.28;;;;;;;11.92;86.86;101798.84;4940821;28;20030;-78
2021/03/29 00:21:36;;;;;;;10.40;3.92;;;;;;;11.85;87.92;101787.00;4944201;29;20026;-76
2021/03/29 00:24:05;;;;;;;14.93;4.10;;;;;;;11.85;87.96;101793.19;4948892;29;20034;-76
2021/03/29 00:26:32;;;;;;;8.90;3.65;;;;;;;11.85;88.31;101790.50;4944374;29;20039;-75
2021/03/29 00:28:58;;;;;;;12.27;3.95;;;;;;;11.85;88.60;101779.69;4937400;28;20499;-76
2021/03/29 00:31:24;;;;;;;13.18;4.40;;;;;;;11.90;88.68;101786.81;4951905;28;20062;-76
2021/03/29 00:33:52;;;;;;;10.80;4.15;;;;;;;11.71;88.71;101784.66;4945857;29;20527;-76
2021/03/29 00:36:22;;;;;;;14.93;4.53;;;;;;;11.75;88.48;101763.94;4948328;29;20039;-76
2021/03/29 00:38:49;;;;;;;12.43;4.20;;;;;;;11.80;88.64;101769.13;4952709;28;20024;-76
2021/03/29 00:41:15;;;;;;;9.30;3.88;;;;;;;11.96;88.18;101761.97;4951001;29;20043;-76
2021/03/29 00:43:44;;;;;;;8.35;4.15;;;;;;;11.89;87.84;101760.91;4951207;28;20023;-76
2021/03/29 00:46:12;;;;;;;10.68;3.92;;;;;;;11.96;87.85;101758.47;4950086;28;20118;-76
2021/03/29 00:48:38;;;;;;;18.55;3.90;;;;;;;11.83;88.27;101760.34;4938761;29;20062;-75
2021/03/29 00:51:11;;;;;;;9.80;3.97;;;;;;;11.70;88.60;101758.78;4957817;29;20039;-77
2021/03/29 00:53:42;;;;;;;7.75;4.05;;;;;;;11.67;89.34;101768.31;4937517;29;20031;-77
2021/03/29 00:56:08;;;;;;;9.82;3.75;;;;;;;11.69;89.03;101770.69;4946972;28;20110;-77
2021/03/29 00:58:35;;;;;;;11.45;4.00;;;;;;;11.75;89.30;101782.81;4949550;28;20043;-77
2021/03/29 01:01:09;;;;;;;13.80;3.72;;;;;;;11.83;88.48;101776.53;4952013;28;20093;-77
2021/03/29 01:03:37;;;;;;;13.93;3.92;;;;;;;11.83;88.27;101784.66;4955111;29;20392;-77
2021/03/29 01:06:09;;;;;;;12.10;3.80;;;;;;;11.72;88.77;101778.13;4955111;28;20031;-76
2021/03/29 01:08:41;;;;;;;9.65;4.00;;;;;;;11.72;88.73;101773.50;4952776;29;20039;-77
2021/03/29 01:11:15;;;;;;;10.68;3.70;;;;;;;11.81;88.45;101769.94;4947303;29;20121;-77
2021/03/29 01:14:09;;;;;;;12.70;3.78;;;;;;;11.74;88.65;101775.88;4958129;28;20035;-77
2021/03/29 01:16:42;;;;;;;10.73;3.85;;;;;;;11.68;89.00;101771.81;4957938;28;20039;-77
2021/03/29 01:19:14;;;;;;;9.07;3.65;;;;;;;11.85;88.12;101771.59;4953374;28;20039;-77
2021/03/29 01:21:42;;;;;;;11.45;3.88;;;;;;;11.89;87.47;101774.41;4954325;28;20035;-77
2021/03/29 01:24:19;;;;;;;10.70;3.70;;;;;;;11.83;87.61;101767.69;4939913;29;20400;-77
2021/03/29 01:26:46;;;;;;;9.05;3.80;;;;;;;11.73;88.33;101774.28;4958186;28;20629;-77
2021/03/29 01:29:15;;;;;;;8.32;3.42;;;;;;;11.81;88.38;101764.53;4955564;28;20412;-78
2021/03/29 01:31:41;;;;;;;12.20;4.40;;;;;;;11.76;87.98;101758.22;4939692;29;20118;-77
2021/03/29 01:34:09;;;;;;;10.27;3.75;;;;;;;11.61;89.28;101766.91;4958140;29;20043;-77
2021/03/29 01:36:35;;;;;;;11.02;4.25;;;;;;;11.67;88.62;101754.81;4955494;28;20706;-77
2021/03/29 01:39:01;;;;;;;15.27;4.28;;;;;;;11.75;88.27;101751.25;4953295;28;20073;-77
2021/03/29 01:41:27;;;;;;;9.65;3.72;;;;;;;11.64;88.81;101749.28;4983632;23;20063;-82
2021/03/29 01:43:54;;;;;;;11.77;4.20;;;;;;;11.75;88.06;101751.25;4946188;28;20047;-82
2021/03/29 01:46:22;;;;;;;15.48;4.50;;;;;;;11.70;88.27;101753.38;4959898;28;20130;-84
2021/03/29 01:48:48;;;;;;;13.77;4.43;;;;;;;11.82;87.80;101749.91;4963098;28;20038;-84
2021/03/29 01:51:15;;;;;;;10.02;4.05;;;;;;;11.79;87.92;101757.53;4953525;28;20031;-84
2021/03/29 01:53:42;;;;;;;9.70;4.25;;;;;;;11.76;88.39;101760.13;4934693;28;20059;-83
2021/03/29 01:56:08;;;;;;;11.32;4.55;;;;;;;11.86;87.59;101757.00;4941451;28;20028;-83
2021/03/29 01:58:33;;;;;;;14.05;4.10;;;;;;;11.89;87.44;101758.22;4937156;29;20111;-82
2021/03/29 02:01:05;;;;;;;16.95;4.35;;;;;;;11.92;87.11;101761.06;4935426;29;20040;-84
2021/03/29 02:03:31;;;;;;;8.80;4.15;;;;;;;11.89;86.85;101759.03;4943771;29;20448;-81
2021/03/29 02:05:59;;;;;;;17.27;4.63;;;;;;;11.98;86.00;101765.09;4953762;29;20036;-82
2021/03/29 02:08:25;;;;;;;11.57;4.32;;;;;;;11.93;85.98;101759.91;4941099;29;20024;-84
2021/03/29 02:10:52;;;;;;;9.45;4.15;;;;;;;11.78;86.84;101753.28;4922734;29;20043;-84
2021/03/29 02:13:23;;;;;;;12.23;4.07;;;;;;;11.85;86.41;101751.91;4920181;29;20036;-83
2021/03/29 02:15:55;;;;;;;11.25;4.72;;;;;;;11.89;86.31;101755.53;4942291;29;20780;-82
2021/03/29 02:18:28;;;;;;;13.43;4.47;;;;;;;11.80;86.07;101744.84;4945420;29;20192;-82
2021/03/29 02:21:01;;;;;;;13.55;4.28;;;;;;;11.71;86.40;101739.53;4926992;29;20031;-82
2021/03/29 02:23:29;;;;;;;14.55;4.38;;;;;;;11.80;86.23;101736.75;4955801;28;20035;-82
2021/03/29 02:25:56;;;;;;;8.25;4.40;;;;;;;11.86;86.08;101740.00;4928732;29;20123;-83
2021/03/29 02:28:21;;;;;;;14.25;4.32;;;;;;;11.86;85.46;101738.09;4943463;29;20035;-82
2021/03/29 02:30:47;;;;;;;9.88;4.57;;;;;;;11.92;85.49;101727.88;4939829;29;20032;-83
2021/03/29 02:33:15;;;;;;;11.18;4.53;;;;;;;11.93;85.35;101722.13;4945844;29;20044;-83
2021/03/29 02:35:42;;;;;;;15.18;4.95;;;;;;;11.83;85.12;101722.56;4943086;29;20402;-83
2021/03/29 02:38:14;;;;;;;12.13;4.20;;;;;;;11.91;85.08;101732.47;4931104;29;20027;-83
2021/03/29 02:40:41;;;;;;;9.88;4.93;;;;;;;11.84;85.20;101728.75;4943753;29;20035;-82
2021/03/29 02:43:12;;;;;;;10.85;4.20;;;;;;;11.72;85.94;101718.75;4964338;28;20406;-83
2021/03/29 02:45:42;;;;;;;16.38;4.50;;;;;;;11.86;85.13;101724.63;4948763;29;20390;-83
2021/03/29 02:48:11;;;;;;;17.07;5.10;;;;;;;11.80;85.76;101720.56;4930289;29;20098;-83
2021/03/29 02:50:41;;;;;;;11.75;4.57;;;;;;;11.76;85.58;101725.84;4961797;29;20031;-83
2021/03/29 02:53:12;;;;;;;10.55;4.50;;;;;;;11.82;85.34;101722.91;4960166;28;20039;-83
2021/03/29 02:55:38;;;;;;;16.03;5.40;;;;;;;11.90;84.79;101725.50;4962291;29;20035;-82
2021/03/29 02:58:05;;;;;;;14.23;4.10;;;;;;;11.90;84.96;101725.50;4931143;28;20027;-83
2021/03/29 03:00:33;;;;;;;11.98;5.10;;;;;;;11.87;85.10;101731.56;4941296;29;21079;-83
2021/03/29 03:03:01;;;;;;;10.50;4.93;;;;;;;11.89;84.75;101742.81;4946619;28;20049;-82
2021/03/29 03:05:32;;;;;;;16.17;5.25;;;;;;;11.93;84.79;101741.03;4947155;29;20031;-83
2021/03/29 03:08:22;;;;;;;10.68;4.38;;;;;;;11.93;84.47;101738.31;4948439;28;20043;-83
2021/03/29 03:10:48;;;;;;;13.00;4.70;;;;;;;11.94;84.46;101744.53;4869459;29;20045;-83
2021/03/29 03:13:14;;;;;;;8.45;4.40;;;;;;;12.03;84.31;101739.78;4863208;29;20053;-83
2021/03/29 03:15:40;;;;;;;12.02;4.75;;;;;;;11.99;84.07;101747.78;4854155;29;20037;-83
2021/03/29 03:18:09;;;;;;;9.73;4.78;;;;;;;11.91;84.12;101745.97;4875675;29;20041;-83
2021/03/29 03:20:36;;;;;;;11.10;4.65;;;;;;;11.99;84.29;101734.28;4847969;29;20074;-83
2021/03/29 03:23:14;;;;;;;11.13;4.63;;;;;;;12.01;84.07;101731.25;4871893;29;20052;-83
2021/03/29 03:25:43;;;;;;;11.63;4.90;;;;;;;12.02;83.70;101740.94;4840938;29;20068;-83
2021/03/29 03:28:11;;;;;;;10.82;4.50;;;;;;;12.02;84.08;101733.59;4839649;29;20045;-83
2021/03/29 03:30:40;;;;;;;9.63;4.40;;;;;;;12.04;83.33;101744.84;4866454;29;20136;-83
2021/03/29 03:33:27;;;;;;;11.68;4.50;;;;;;;11.94;83.99;101737.22;4851498;29;20045;-83
2021/03/29 03:35:54;;;;;;;10.13;4.68;;;;;;;11.96;83.67;101734.97;4805966;29;20089;-84
2021/03/29 03:38:35;;;;;;;10.45;4.72;;;;;;;12.12;82.64;101737.75;4791941;29;20074;-83
2021/03/29 03:41:08;;;;;;;9.63;4.85;;;;;;;12.02;83.39;101741.69;4800627;29;20047;-83
2021/03/29 03:43:37;;;;;;;12.30;4.93;;;;;;;12.08;83.13;101740.34;4812376;29;20042;-83
2021/03/29 03:46:11;;;;;;;15.82;4.78;;;;;;;12.03;83.31;101740.59;4814712;29;20493;-83
2021/03/29 03:48:38;;;;;;;12.93;4.45;;;;;;;12.01;82.93;101748.22;4859254;29;20117;-82
2021/03/29 03:51:06;;;;;;;13.05;4.47;;;;;;;11.99;83.67;101738.88;4849730;29;20073;-83
2021/03/29 03:53:34;;;;;;;12.82;4.65;;;;;;;11.99;82.67;101750.47;4869964;29;20529;-83
2021/03/29 03:56:00;;;;;;;8.48;4.47;;;;;;;12.04;83.26;101750.25;4863123;29;20045;-83
2021/03/29 03:58:29;;;;;;;11.23;4.93;;;;;;;12.08;83.38;101745.75;4849659;29;20044;-82
2021/03/29 04:00:57;;;;;;;13.05;4.55;;;;;;;12.17;83.50;101759.16;4846877;29;20049;-83
2021/03/29 04:03:26;;;;;;;14.07;4.97;;;;;;;12.06;84.16;101745.31;4853832;29;20042;-83
2021/03/29 04:05:53;;;;;;;11.55;4.40;;;;;;;11.95;84.55;101744.19;4849104;29;20045;-82
2021/03/29 04:08:18;;;;;;;7.10;4.18;;;;;;;12.01;84.87;101745.53;4864987;29;20430;-83
2021/03/29 04:10:50;;;;;;;10.70;4.40;;;;;;;11.95;84.74;101737.97;4849420;29;20053;-83
2021/03/29 04:13:29;;;;;;;12.90;4.50;;;;;;;12.01;84.02;101744.75;4913364;28;20051;-83
2021/03/29 04:15:56;;;;;;;11.70;4.82;;;;;;;11.97;84.59;101747.34;4962868;28;20440;-82
2021/03/29 04:18:22;;;;;;;14.95;4.63;;;;;;;12.07;83.58;101756.91;4946362;29;20043;-83
2021/03/29 04:20:49;;;;;;;9.35;4.30;;;;;;;11.98;84.41;101750.81;4942745;29;20038;-83
2021/03/29 04:23:16;;;;;;;12.15;4.95;;;;;;;12.11;83.30;101769.41;4963947;28;20026;-83
2021/03/29 04:25:42;;;;;;;13.32;4.47;;;;;;;12.06;83.43;101760.72;4942950;29;20035;-83
2021/03/29 04:28:07;;;;;;;11.52;4.43;;;;;;;12.02;84.15;101755.19;4958941;28;20099;-82
2021/03/29 04:30:33;;;;;;;8.27;4.15;;;;;;;12.00;83.91;101757.44;4922173;28;20030;-82
2021/03/29 04:32:58;;;;;;;10.68;4.30;;;;;;;12.03;83.68;101753.28;4926021;29;20729;-83
2021/03/29 04:35:24;;;;;;;15.93;4.43;;;;;;;12.06;82.96;101755.34;4935931;29;20043;-83
2021/03/29 04:37:51;;;;;;;16.27;4.03;;;;;;;12.05;83.15;101757.25;4962578;28;20026;-82
2021/03/29 04:40:19;;;;;;;12.80;4.30;;;;;;;12.05;83.28;101749.13;4941807;29;20031;-82
2021/03/29 04:42:45;;;;;;;8.50;3.80;;;;;;;11.94;83.62;101748.00;4946863;29;20027;-83
2021/03/29 04:45:12;;;;;;;10.82;3.90;;;;;;;11.89;84.22;101742.81;4962538;28;20054;-83
2021/03/29 04:47:39;;;;;;;14.52;3.83;;;;;;;12.00;83.24;101746.66;4942714;28;20062;-81
2021/03/29 04:50:06;;;;;;;15.18;4.70;;;;;;;12.05;81.82;101742.94;4964334;28;20097;-83
2021/03/29 04:52:32;;;;;;;10.85;3.78;;;;;;;11.90;82.15;101744.41;4929035;29;20071;-82
2021/03/29 04:54:57;;;;;;;10.85;3.53;;;;;;;11.87;82.79;101739.66;4960536;29;20042;-83
2021/03/29 04:57:23;;;;;;;14.32;3.85;;;;;;;11.99;82.13;101750.47;4936813;29;20118;-82
2021/03/29 04:59:49;;;;;;;7.20;3.28;;;;;;;12.04;82.14;101747.53;4942016;29;20125;-83
2021/03/29 05:02:14;;;;;;;11.85;4.30;;;;;;;12.10;81.55;101757.00;4941249;29;20027;-82
2021/03/29 05:04:40;;;;;;;15.38;3.75;;;;;;;12.06;82.66;101753.41;4955295;28;20122;-82
2021/03/29 05:07:13;;;;;;;10.95;3.75;;;;;;;12.10;81.97;101753.53;4938693;28;20502;-82
2021/03/29 05:09:39;;;;;;;15.52;4.00;;;;;;;12.09;81.85;101744.63;4931744;29;20067;-81
2021/03/29 05:12:15;;;;;;;10.43;3.47;;;;;;;12.08;81.58;101751.16;4921656;29;20255;-82
2021/03/29 05:14:41;;;;;;;12.77;3.55;;;;;;;12.08;81.49;101750.38;4917130;28;20038;-81
2021/03/29 05:17:10;;;;;;;9.10;3.25;;;;;;;11.98;81.93;101748.88;4914920;29;20031;-82
2021/03/29 05:19:36;;;;;;;10.63;3.30;;;;;;;11.99;81.60;101750.47;4921634;29;20031;-83
2021/03/29 05:22:03;;;;;;;9.90;3.28;;;;;;;12.02;80.87;101752.50;4939773;29;20027;-82
2021/03/29 05:24:29;;;;;;;8.27;3.40;;;;;;;12.15;80.22;101754.09;4933875;29;20031;-83
2021/03/29 05:26:55;;;;;;;9.48;3.42;;;;;;;12.12;80.72;101757.44;4957863;28;20035;-83
2021/03/29 05:29:27;;;;;;;10.93;3.85;;;;;;;12.17;80.17;101772.66;4921849;29;20039;-82
2021/03/29 05:31:55;;;;;;;14.18;3.63;;;;;;;12.18;79.78;101764.22;4935293;28;21361;-83
2021/03/29 05:34:21;;;;;;;8.85;2.85;;;;;;;12.10;80.67;101756.25;4954179;28;20079;-82
2021/03/29 05:36:47;;;;;;;12.88;3.30;;;;;;;12.03;80.13;101739.78;4937515;29;20070;-83
2021/03/29 05:39:15;;;;;;;9.20;3.45;;;;;;;12.04;80.58;101747.53;4948089;28;20078;-83
2021/03/29 05:41:42;;;;;;;8.18;3.10;;;;;;;12.21;79.99;101766.25;4934472;28;20027;-84
2021/03/29 05:44:09;;;;;;;8.00;2.75;;;;;;;12.26;79.09;101746.31;4945259;29;20070;-83
2021/03/29 05:46:39;;;;;;;11.73;3.42;;;;;;;12.37;78.17;101758.22;4946040;29;20039;-83
2021/03/29 05:49:06;;;;;;;10.63;3.30;;;;;;;12.39;78.07;101748.66;4945919;28;20049;-83
2021/03/29 05:51:36;;;;;;;8.82;3.25;;;;;;;12.38;78.48;101755.22;4950348;29;20034;-83
2021/03/29 05:54:04;;;;;;;10.32;3.17;;;;;;;12.19;79.03;101754.19;4968895;28;20047;-83
2021/03/29 05:56:31;;;;;;;9.18;3.20;;;;;;;12.42;77.76;101758.81;4971878;28;20050;-84
2021/03/29 05:59:16;;;;;;;11.93;3.60;;;;;;;12.34;77.84;101757.00;4943387;29;20031;-83
2021/03/29 06:01:47;;;;;;;9.73;3.10;;;;;;;12.08;79.74;101766.59;4969205;28;20054;-83
2021/03/29 06:04:14;;;;;;;8.65;3.10;;;;;;;12.41;78.78;101773.44;4961284;29;20039;-83
2021/03/29 06:06:40;;;;;;;6.97;2.97;;;;;;;12.57;78.21;101766.22;4961037;28;20027;-84
2021/03/29 06:09:07;;;;;;;9.70;3.00;;;;;;;12.60;77.98;101762.06;4949508;28;20114;-84
2021/03/29 06:11:34;;;;;;;8.30;3.03;;;;;;;12.65;77.16;101762.59;4972553;28;20085;-83
2021/03/29 06:14:13;;;;;;;10.13;3.17;;;;;;;12.65;76.53;101768.00;4961664;29;20035;-83
2021/03/29 06:16:52;;;;;;;11.85;3.15;;;;;;;12.55;77.43;101763.06;4916833;29;20135;-83
2021/03/29 06:19:58;;;;;;;10.85;3.13;;;;;;;12.67;76.65;101770.34;4949690;28;20031;-83
2021/03/29 06:22:27;;;;;;;10.60;3.13;;;;;;;12.67;77.23;101760.34;4945979;29;20067;-84
2021/03/29 06:24:58;;;;;;;10.77;3.00;;;;;;;12.74;76.27;101761.69;4956970;28;20110;-85
2021/03/29 06:27:32;;;;;;;11.50;3.15;;;;;;;12.81;76.84;101762.69;4943751;29;20124;-85
2021/03/29 06:30:30;;;;;;;10.82;3.25;;;;;;;12.75;76.01;101766.75;4947446;29;20042;-83
2021/03/29 06:33:04;;;;;;;13.77;3.38;;;;;;;12.76;76.83;101770.22;4945296;29;20074;-84
2021/03/29 06:35:54;;;;;;;11.95;2.75;;;;;;;12.68;76.32;101770.00;4948855;29;20726;-84
2021/03/29 06:38:27;;;;;;;13.30;3.22;;;;;;;12.75;76.10;101764.03;4944508;29;20047;-83
2021/03/29 06:41:01;;;;;;;8.63;2.85;;;;;;;12.87;77.02;101769.41;4961748;29;20042;-84
2021/03/29 06:43:30;;;;;;;10.48;3.15;;;;;;;12.88;76.20;101770.19;4944734;29;20031;-83
2021/03/29 06:46:02;;;;;;;10.48;3.17;;;;;;;12.86;76.60;101769.75;4950535;29;20036;-84
2021/03/29 06:48:33;;;;;;;12.10;3.28;;;;;;;12.91;75.87;101764.13;4942113;29;20102;-84
2021/03/29 06:51:15;;;;;;;7.05;2.92;;;;;;;12.93;75.42;101768.03;4956440;28;20031;-85
2021/03/29 06:54:07;;;;;;;9.32;3.03;;;;;;;12.94;76.16;101763.41;4951449;28;20155;-84
2021/03/29 06:56:41;;;;;;;9.50;3.25;;;;;;;13.10;74.26;101767.00;4957170;29;20031;-85
2021/03/29 06:59:15;;;;;;;13.13;2.97;;;;;;;13.18;74.72;101764.13;4946500;29;20118;-85
2021/03/29 07:01:46;;;;;;;11.88;3.42;;;;;;;13.32;75.13;101761.03;4948033;28;20035;-83
2021/03/29 07:04:13;;;;;;;11.00;3.17;;;;;;;13.33;74.56;101763.41;4932622;29;20027;-84
2021/03/29 07:06:41;;;;;;;9.13;2.97;;;;;;;13.51;73.91;101766.59;4929505;29;20043;-84
2021/03/29 07:09:09;;;;;;;8.85;2.92;;;;;;;13.59;73.28;101765.63;4933129;29;20071;-85
2021/03/29 07:11:36;;;;;;;10.30;3.38;;;;;;;13.81;73.14;101770.47;4963807;28;20035;-83
2021/03/29 07:14:05;;;;;;;12.05;3.50;;;;;;;14.06;72.81;101763.72;4939610;29;20581;-86
2021/03/29 07:16:31;;;;;;;10.90;2.83;;;;;;;14.23;72.03;101774.19;4929418;29;20035;-85
2021/03/29 07:18:59;;;;;;;11.02;2.97;;;;;;;14.09;72.90;101776.56;4949469;29;20039;-84
2021/03/29 07:21:25;;;;;;;10.82;3.70;;;;;;;14.15;72.89;101785.25;4966956;29;20050;-84
2021/03/29 07:24:12;;;;;;;15.82;4.00;;;;;;;14.23;73.75;101787.75;4963129;28;20062;-84
2021/03/29 07:26:42;;;;;;;10.80;3.63;;;;;;;14.22;74.57;101783.47;4940895;29;20032;-85
2021/03/29 07:29:25;;;;;;;11.30;3.63;;;;;;;14.28;73.93;101784.81;4963433;29;20035;-85
2021/03/29 07:31:56;;;;;;;11.80;3.25;;;;;;;14.40;73.63;101776.56;4946305;28;20054;-85
2021/03/29 07:34:41;;;;;;;;;;;;;;;14.60;71.80;101784.75;4940930;29;20027;-85
2021/03/29 07:37:28;;;;;;;7.35;2.90;;;;;;;14.74;71.93;101795.91;4963517;28;20278;-83
2021/03/29 07:39:54;;;;;;;9.00;3.13;;;;;;;14.96;70.71;101787.88;4923292;29;20484;-84
2021/03/29 07:42:22;;;;;;;5.75;2.90;;;;;;;15.07;68.28;101788.09;4932678;29;20054;-84
2021/03/29 07:45:00;;;;;;;11.25;3.40;;;;;;;15.08;67.46;101786.94;4947201;28;20518;-83
2021/03/29 07:47:46;;;;;;;10.82;2.90;;;;;;;15.17;67.59;101792.97;4957698;28;20423;-84
2021/03/29 07:50:32;;;;;;;9.95;3.40;;;;;;;15.06;67.85;101798.16;4955302;28;20042;-83
2021/03/29 07:53:05;;;;;;;11.48;3.33;;;;;;;14.79;67.37;101799.13;4935711;28;20102;-84
2021/03/29 07:55:42;;;;;;;13.57;3.40;;;;;;;14.84;68.31;101798.06;4938940;29;20039;-83
2021/03/29 07:58:09;;;;;;;8.55;2.95;;;;;;;14.72;68.89;101796.28;4943501;29;20424;-84
2021/03/29 08:00:35;;;;;;;7.40;2.95;;;;;;;14.67;69.51;101806.59;4939372;28;20034;-84
2021/03/29 08:03:21;;;;;;;9.73;3.40;;;;;;;14.86;68.58;101799.28;4937483;28;20058;-84
2021/03/29 08:05:48;;;;;;;14.88;3.45;;;;;;;14.79;68.68;101815.41;4938506;28;20032;-84
2021/03/29 08:08:31;;;;;;;11.30;3.33;;;;;;;14.85;68.46;101807.75;4926748;28;20058;-84
2021/03/29 08:11:19;;;;;;;7.30;2.90;;;;;;;14.57;69.59;101799.81;4941057;28;20042;-84
2021/03/29 08:13:58;;;;;;;9.95;3.15;;;;;;;14.65;69.73;101798.84;4939992;28;20138;-83
2021/03/29 08:16:28;;;;;;;9.30;3.13;;;;;;;14.83;69.21;101810.84;4923021;29;20053;-82
2021/03/29 08:19:06;;;;;;;9.75;3.42;;;;;;;14.72;68.93;101807.13;4941908;28;20542;-84
2021/03/29 08:21:53;;;;;;;10.73;3.38;;;;;;;14.80;69.21;101827.03;4958152;28;20039;-84
2021/03/29 08:24:26;;;;;;;9.52;3.03;;;;;;;14.89;68.72;101836.56;4938623;28;20050;-83
2021/03/29 08:26:54;;;;;;;9.65;3.38;;;;;;;14.93;69.02;101832.00;4939267;28;20070;-84
2021/03/29 08:29:27;;;;;;;10.30;3.20;;;;;;;14.94;68.54;101822.69;4955218;28;20508;-84
2021/03/29 08:32:03;;;;;;;12.77;3.50;;;;;;;14.92;68.72;101824.22;4926462;28;20034;-85
2021/03/29 08:34:31;;;;;;;7.95;3.40;;;;;;;14.79;69.97;101833.63;4955083;28;20472;-84
2021/03/29 08:37:00;;;;;;;7.22;3.40;;;;;;;14.86;69.07;101858.19;4940981;28;20031;-84
2021/03/29 08:39:33;;;;;;;11.45;3.55;;;;;;;14.82;69.66;101858.09;4918611;29;20567;-84
2021/03/29 08:42:00;;;;;;;6.78;3.08;;;;;;;15.01;69.13;101844.56;4955288;28;20035;-84
2021/03/29 08:44:30;;;;;;;11.43;3.60;;;;;;;14.87;71.14;101855.09;4940988;29;20051;-85
2021/03/29 08:46:56;;;;;;;7.28;3.10;;;;;;;14.89;71.02;101868.31;4953825;28;20035;-84
2021/03/29 08:49:23;;;;;;;10.52;3.47;;;;;;;14.91;70.96;101855.19;4960766;28;20043;-84
2021/03/29 08:51:53;;;;;;;12.10;3.55;;;;;;;14.94;70.86;101844.41;4924461;28;20087;-85
2021/03/29 08:54:19;;;;;;;10.65;3.72;;;;;;;14.77;71.75;101858.34;4926953;29;20098;-84
2021/03/29 08:56:50;;;;;;;8.27;3.15;;;;;;;14.90;70.55;101861.75;4956078;28;20473;-84
2021/03/29 08:59:16;;;;;;;9.23;2.92;;;;;;;14.98;70.90;101866.19;4939983;29;20040;-85
2021/03/29 09:01:42;;;;;;;10.23;3.42;;;;;;;14.99;70.47;101859.63;4930952;29;20040;-85
2021/03/29 09:04:13;;;;;;;14.82;3.92;;;;;;;14.99;70.73;101862.34;4942111;29;20043;-85
2021/03/29 09:06:41;;;;;;;7.97;2.90;;;;;;;14.96;71.16;101861.09;4944964;28;20038;-84
2021/03/29 09:09:14;;;;;;;12.00;4.03;;;;;;;15.12;70.68;101861.84;4932528;28;20474;-83
2021/03/29 09:11:42;;;;;;;10.60;3.75;;;;;;;15.10;71.44;101866.06;4928437;29;20055;-84
2021/03/29 09:14:09;;;;;;;12.05;3.38;;;;;;;15.14;70.83;101856.88;4942276;29;20027;-82
2021/03/29 09:16:35;;;;;;;12.27;3.00;;;;;;;15.26;70.78;101858.66;4934083;28;20046;-84
2021/03/29 09:19:33;;;;;;;7.30;3.03;;;;;;;15.34;69.95;101860.38;4929424;28;20031;-84
2021/03/29 09:22:03;;;;;;;13.98;3.35;;;;;;;15.41;69.62;101857.03;4944740;28;20045;-84
2021/03/29 09:24:30;;;;;;;13.18;3.53;;;;;;;15.48;68.16;101868.84;4945529;28;20039;-84
2021/03/29 09:26:59;;;;;;;13.73;3.85;;;;;;;15.61;68.41;101874.91;4940425;29;20027;-83
2021/03/29 09:29:33;;;;;;;8.07;3.20;;;;;;;15.61;68.60;101872.97;4929070;29;20031;-84
2021/03/29 09:32:12;;;;;;;16.20;3.90;;;;;;;15.69;67.77;101869.25;4953637;29;20385;-83
2021/03/29 09:34:39;;;;;;;6.65;2.95;;;;;;;15.64;66.82;101868.78;4947327;29;20028;-83
2021/03/29 09:37:25;;;;;;;12.27;3.70;;;;;;;15.66;67.94;101886.25;4938136;28;20035;-84
2021/03/29 09:40:08;;;;;;;9.30;3.58;;;;;;;15.68;67.34;101889.41;4949652;28;20038;-84
2021/03/29 09:42:55;;;;;;;9.77;3.70;;;;;;;15.84;67.02;101892.84;4930056;28;20032;-83
2021/03/29 09:45:30;;;;;;;14.52;3.97;;;;;;;15.67;67.22;101892.47;4939691;28;20126;-82
2021/03/29 09:48:03;;;;;;;9.43;3.65;;;;;;;15.81;67.21;101899.00;4958916;28;20035;-83
2021/03/29 09:50:34;;;;;;;7.70;3.35;;;;;;;16.03;67.57;101892.78;4954879;29;20027;-83
2021/03/29 09:53:22;;;;;;;13.85;3.40;;;;;;;16.21;66.53;101901.28;4946469;28;20043;-84
2021/03/29 09:55:50;;;;;;;7.85;3.20;;;;;;;16.47;65.66;101914.16;4943633;29;20039;-83
2021/03/29 09:58:24;;;;;;;9.65;3.80;;;;;;;16.65;64.25;101916.03;4927801;28;20506;-83
2021/03/29 10:00:55;;;;;;;10.23;3.60;;;;;;;16.94;63.23;101912.59;4945919;29;20046;-84
2021/03/29 10:03:22;;;;;;;8.18;3.63;;;;;;;17.21;62.77;101905.19;4964905;28;20038;-83
2021/03/29 10:05:48;;;;;;;15.10;4.05;;;;;;;17.41;62.06;101909.34;4926083;29;20040;-84
2021/03/29 10:08:31;;;;;;;11.27;3.55;;;;;;;17.74;61.40;101909.41;4965543;28;20282;-84
2021/03/29 10:11:08;;;;;;;11.07;3.72;;;;;;;17.82;62.01;101913.78;4946336;29;20046;-83
2021/03/29 10:13:37;;;;;;;11.52;3.17;;;;;;;17.98;60.97;101908.88;4949792;29;20046;-85
2021/03/29 10:16:24;;;;;;;11.48;3.45;;;;;;;18.30;58.92;101902.94;4946529;28;20045;-84
2021/03/29 10:19:07;;;;;;;10.45;3.97;;;;;;;18.28;57.90;101906.06;4966797;28;20496;-85
2021/03/29 10:21:34;;;;;;;10.32;3.53;;;;;;;18.38;57.96;101907.31;4940521;28;20488;-83
2021/03/29 10:24:13;;;;;;;13.68;3.47;;;;;;;18.59;57.80;101907.50;4949838;29;20069;-84
2021/03/29 10:26:39;;;;;;;9.52;3.22;;;;;;;18.81;57.51;101911.97;4938563;29;20099;-85
2021/03/29 10:29:07;;;;;;;8.32;3.40;;;;;;;19.15;57.22;101907.09;4957705;28;20060;-83
2021/03/29 10:31:34;;;;;;;13.68;3.10;;;;;;;19.62;54.99;101910.50;4949110;29;20039;-84
2021/03/29 10:34:01;;;;;;;7.72;3.17;;;;;;;19.92;54.58;101912.16;4938656;29;20070;-84
2021/03/29 10:36:28;;;;;;;7.68;3.28;;;;;;;20.16;53.84;101911.41;4948410;28;20019;-85
2021/03/29 10:38:56;;;;;;;7.32;3.22;;;;;;;20.46;53.12;101914.59;4933133;29;20039;-85
2021/03/29 10:41:22;;;;;;;10.07;3.30;;;;;;;20.58;52.72;101904.03;4963824;29;20070;-84
2021/03/29 10:43:48;;;;;;;10.20;3.10;;;;;;;20.68;52.92;101908.72;4933020;29;20051;-85
2021/03/29 10:46:14;;;;;;;8.35;3.50;;;;;;;20.89;51.86;101916.13;4946802;29;20058;-84
2021/03/29 10:48:39;;;;;;;5.95;3.05;;;;;;;20.98;51.67;101915.72;4947064;29;20039;-84
2021/03/29 10:51:06;;;;;;;12.57;3.13;;;;;;;21.13;51.88;101918.06;4963552;28;20043;-83
2021/03/29 10:53:33;;;;;;;13.48;3.70;;;;;;;21.38;50.64;101920.72;4945241;28;20023;-85
2021/03/29 10:55:59;;;;;;;8.75;3.50;;;;;;;21.51;50.45;101921.84;4947360;29;20127;-84
2021/03/29 10:58:24;;;;;;;8.73;3.33;;;;;;;21.68;50.66;101920.22;4964823;29;20059;-85
2021/03/29 11:00:50;;;;;;;9.63;3.15;;;;;;;21.58;50.78;101903.41;4947315;29;20111;-85
2021/03/29 11:03:15;;;;;;;8.20;3.20;;;;;;;21.80;50.04;101904.09;4948847;29;20039;-85
2021/03/29 11:05:41;;;;;;;12.30;3.00;;;;;;;21.74;51.46;101900.19;4928710;29;21416;-85
2021/03/29 11:08:06;;;;;;;10.73;3.33;;;;;;;22.10;50.33;101904.31;4966008;29;20075;-86
2021/03/29 11:10:33;;;;;;;9.20;3.13;;;;;;;22.44;49.41;101901.69;4963746;29;20023;-85
2021/03/29 11:13:03;;;;;;;7.50;3.17;;;;;;;22.19;49.43;101899.16;4938020;28;20150;-84
2021/03/29 11:15:32;;;;;;;7.80;3.03;;;;;;;22.22;49.73;101905.81;4943396;29;20121;-85
2021/03/29 11:17:57;;;;;;;12.07;3.65;;;;;;;22.40;49.23;101906.44;4961332;28;20038;-84
2021/03/29 11:20:24;;;;;;;7.05;3.00;;;;;;;22.56;49.26;101911.41;4947600;29;20031;-85
2021/03/29 11:22:49;;;;;;;8.35;2.85;;;;;;;22.61;49.25;101914.53;4966139;29;20081;-84
2021/03/29 11:25:15;;;;;;;6.35;2.75;;;;;;;22.48;49.83;101916.19;4946338;29;20047;-85
2021/03/29 11:27:41;;;;;;;9.55;3.35;;;;;;;22.65;49.70;101912.53;4948451;29;20035;-86
2021/03/29 11:30:09;;;;;;;11.68;3.22;;;;;;;22.99;48.87;101907.91;4958245;28;20035;-85
2021/03/29 11:32:36;;;;;;;12.55;3.25;;;;;;;22.93;48.74;101904.03;4960587;29;20118;-86
2021/03/29 11:35:04;;;;;;;9.15;2.88;;;;;;;23.00;48.06;101920.44;4929844;29;20023;-86